Time;durP1;ratioP1;P1;durP2;ratioP2;P2;SDS_P1;SDS_P2;PMS_P1;PMS_P2;Temp;Humidity;BMP_temperature;BMP_pressure;BME280_temperature;BME280_humidity;BME280_pressure;Samples;Min_cycle;Max_cycle;Signal;HPM_P1;HPM_P2
2024/03/29 00:02:08;;;;;;;1.67;0.83;;;11.00;99.90;;;;;;5025618;28;20243;-85
2024/03/29 00:04:33;;;;;;;5.03;1.20;;;11.00;99.90;;;;;;5021523;28;20185;-86
2024/03/29 00:06:59;;;;;;;3.10;1.30;;;11.00;99.90;;;;;;5021612;28;20209;-84
2024/03/29 00:09:25;;;;;;;4.37;1.03;;;11.00;99.90;;;;;;5012140;28;20462;-87
2024/03/29 00:11:51;;;;;;;3.53;0.90;;;11.00;99.90;;;;;;5012893;28;20248;-85
2024/03/29 00:14:16;;;;;;;4.63;1.37;;;11.00;99.90;;;;;;5013104;28;20239;-84
2024/03/29 00:16:42;;;;;;;4.37;1.47;;;11.00;99.90;;;;;;5013105;28;20186;-83
2024/03/29 00:19:08;;;;;;;6.10;1.87;;;11.10;99.90;;;;;;5014153;28;20178;-84
2024/03/29 00:21:33;;;;;;;4.93;1.30;;;11.10;99.90;;;;;;5017068;28;20166;-86
2024/03/29 00:23:59;;;;;;;4.40;1.40;;;11.00;99.90;;;;;;5016173;28;20189;-86
2024/03/29 00:26:25;;;;;;;5.50;1.40;;;11.10;99.90;;;;;;5016548;28;20591;-83
2024/03/29 00:28:50;;;;;;;4.07;1.60;;;11.10;99.90;;;;;;5016161;28;20186;-85
2024/03/29 00:31:16;;;;;;;5.10;1.70;;;11.20;99.90;;;;;;5016083;28;20176;-85
2024/03/29 00:33:41;;;;;;;6.30;1.30;;;11.20;99.90;;;;;;5016374;28;20185;-84
2024/03/29 00:36:07;;;;;;;3.23;1.30;;;11.20;99.90;;;;;;5016958;28;20171;-85
2024/03/29 00:38:33;;;;;;;4.90;1.53;;;11.20;99.90;;;;;;5015920;28;20586;-85
2024/03/29 00:40:58;;;;;;;6.77;1.70;;;11.20;99.90;;;;;;5016774;28;20244;-85
2024/03/29 00:43:24;;;;;;;4.30;1.23;;;11.20;99.90;;;;;;5016488;28;20542;-84
2024/03/29 00:45:50;;;;;;;3.53;1.33;;;11.20;99.90;;;;;;5017390;28;20639;-84
2024/03/29 00:48:17;;;;;;;5.33;1.10;;;11.30;99.90;;;;;;5015987;28;20214;-84
2024/03/29 00:50:43;;;;;;;5.40;1.27;;;11.30;99.90;;;;;;5016706;28;20193;-88
2024/03/29 00:53:09;;;;;;;2.80;1.00;;;11.30;99.90;;;;;;5017706;28;20264;-83
2024/03/29 00:55:34;;;;;;;3.60;1.27;;;11.40;99.90;;;;;;5016233;28;20639;-84
2024/03/29 00:58:00;;;;;;;4.40;1.40;;;11.40;99.90;;;;;;5015537;28;20170;-85
2024/03/29 01:00:26;;;;;;;3.50;1.30;;;11.40;99.90;;;;;;5016426;28;20643;-86
2024/03/29 01:02:51;;;;;;;2.80;1.10;;;11.20;99.90;;;;;;5016027;28;20217;-84
2024/03/29 01:05:17;;;;;;;3.63;1.00;;;11.40;99.90;;;;;;5015587;28;20248;-84
2024/03/29 01:07:43;;;;;;;3.60;1.00;;;11.50;99.90;;;;;;5016371;28;20221;-85
2024/03/29 01:10:09;;;;;;;3.37;1.00;;;11.50;99.90;;;;;;5016843;28;20170;-84
2024/03/29 01:12:36;;;;;;;4.07;1.20;;;11.50;99.90;;;;;;5016775;28;20201;-84
2024/03/29 01:15:03;;;;;;;4.30;1.20;;;11.60;96.10;;;;;;5020518;28;20175;-86
2024/03/29 01:17:29;;;;;;;5.17;1.40;;;11.60;99.90;;;;;;5016770;28;20197;-86
2024/03/29 01:19:56;;;;;;;2.77;1.00;;;11.50;99.90;;;;;;5015456;28;20174;-83
2024/03/29 01:22:22;;;;;;;3.57;1.27;;;11.50;99.90;;;;;;5015133;28;20178;-83
2024/03/29 01:24:48;;;;;;;3.63;1.17;;;11.50;99.90;;;;;;5015905;28;20551;-85
2024/03/29 01:27:14;;;;;;;3.63;1.10;;;11.50;99.90;;;;;;5015688;28;20271;-83
2024/03/29 01:29:40;;;;;;;4.47;1.10;;;11.40;99.90;;;;;;5014087;28;20178;-85
2024/03/29 01:32:06;;;;;;;2.30;0.90;;;11.40;99.90;;;;;;5047881;28;20181;-83
2024/03/29 01:34:32;;;;;;;1.93;0.80;;;11.40;99.90;;;;;;5048982;28;20496;-83
2024/03/29 01:36:58;;;;;;;2.27;1.00;;;11.30;99.90;;;;;;5048336;28;20179;-83
2024/03/29 01:39:28;;;;;;;2.03;1.00;;;11.30;99.90;;;;;;5047885;28;20189;-86
2024/03/29 01:41:54;;;;;;;3.70;1.17;;;11.20;99.90;;;;;;5048018;28;20171;-84
2024/03/29 01:44:20;;;;;;;4.10;0.97;;;11.20;99.90;;;;;;5048136;28;20244;-86
2024/03/29 01:46:47;;;;;;;3.10;0.70;;;11.20;99.90;;;;;;5047412;28;20214;-84
2024/03/29 01:49:13;;;;;;;3.80;0.90;;;11.10;1.00;;;;;;5014695;28;20591;-83
2024/03/29 01:51:40;;;;;;;2.57;0.80;;;11.00;1.00;;;;;;5015318;28;20650;-85
2024/03/29 01:54:09;;;;;;;2.53;0.70;;;10.90;1.00;;;;;;5048279;28;20643;-83
2024/03/29 01:56:35;;;;;;;2.07;0.70;;;10.80;1.00;;;;;;5047164;28;20635;-84
2024/03/29 01:59:04;;;;;;;1.83;0.67;;;10.80;1.00;;;;;;5046729;28;20174;-85
2024/03/29 02:01:30;;;;;;;2.43;0.60;;;10.70;1.00;;;;;;5014656;28;20587;-83
2024/03/29 02:03:56;;;;;;;3.10;0.87;;;10.70;1.00;;;;;;5047411;28;20236;-82
2024/03/29 02:06:23;;;;;;;2.53;0.60;;;10.60;1.00;;;;;;5015344;28;20182;-86
2024/03/29 02:08:54;;;;;;;1.70;0.73;;;10.50;1.00;;;;;;5047874;28;20269;-86
2024/03/29 02:11:20;;;;;;;2.33;0.67;;;10.50;1.00;;;;;;5015002;28;20182;-86
2024/03/29 02:13:47;;;;;;;0.90;0.50;;;10.50;1.00;;;;;;5047425;28;20182;-84
2024/03/29 02:16:12;;;;;;;4.30;0.60;;;10.40;1.00;;;;;;5047096;28;20542;-85
2024/03/29 02:18:38;;;;;;;2.33;0.50;;;10.30;1.00;;;;;;5047559;28;20178;-83
2024/03/29 02:21:04;;;;;;;2.17;0.67;;;10.20;1.00;;;;;;5013852;28;20692;-84
2024/03/29 02:23:32;;;;;;;1.93;0.60;;;10.10;1.00;;;;;;5046584;28;20257;-83
2024/03/29 02:25:58;;;;;;;2.40;0.80;;;10.00;1.00;;;;;;5028739;28;20166;-82
2024/03/29 02:28:25;;;;;;;1.10;0.60;;;10.00;1.00;;;;;;5037595;28;20222;-82
2024/03/29 02:30:51;;;;;;;0.97;0.67;;;9.90;1.00;;;;;;5034928;28;20265;-81
2024/03/29 02:33:16;;;;;;;2.03;0.80;;;9.90;1.00;;;;;;5034620;28;20186;-86
2024/03/29 02:35:43;;;;;;;1.23;0.70;;;9.80;1.00;;;;;;5017156;28;20163;-84
2024/03/29 02:38:12;;;;;;;3.43;0.90;;;9.80;1.00;;;;;;5015147;28;20224;-83
2024/03/29 02:40:38;;;;;;;1.57;0.80;;;9.70;1.00;;;;;;5013789;28;20265;-83
2024/03/29 02:43:04;;;;;;;2.30;1.00;;;9.70;1.00;;;;;;5013141;28;20186;-84
2024/03/29 02:45:30;;;;;;;1.43;0.97;;;9.60;1.00;;;;;;5012468;28;20586;-83
2024/03/29 02:47:56;;;;;;;1.53;1.00;;;9.60;1.00;;;;;;5046246;28;20213;-85
2024/03/29 02:50:22;;;;;;;2.73;0.93;;;9.60;1.00;;;;;;5014058;28;20178;-82
2024/03/29 02:52:48;;;;;;;4.03;1.47;;;9.60;1.00;;;;;;5014243;28;20182;-85
2024/03/29 02:55:13;;;;;;;2.93;1.27;;;9.60;1.00;;;;;;5013945;28;20166;-85
2024/03/29 02:57:39;;;;;;;1.70;1.30;;;9.60;6.40;;;;;;5013853;28;20170;-85
2024/03/29 03:00:07;;;;;;;4.30;1.50;;;9.60;10.90;;;;;;5047082;28;20546;-84
2024/03/29 03:02:36;;;;;;;5.67;1.57;;;9.60;16.00;;;;;;5013965;28;20205;-84
2024/03/29 03:05:02;;;;;;;4.50;1.40;;;9.60;22.00;;;;;;5047514;28;20174;-84
2024/03/29 03:12:56;;;;;;;2.20;1.00;;;9.60;42.70;;;;;;5014726;28;20205;-84
2024/03/29 03:15:22;;;;;;;3.03;1.07;;;9.60;51.80;;;;;;5045490;28;20697;-87
2024/03/29 03:17:47;;;;;;;2.90;1.30;;;9.50;58.90;;;;;;5014991;28;20189;-83
2024/03/29 03:20:15;;;;;;;4.40;1.13;;;9.50;62.30;;;;;;5013479;28;20174;-86
2024/03/29 03:22:41;;;;;;;3.33;1.20;;;9.50;70.90;;;;;;5014190;28;20574;-85
2024/03/29 03:25:07;;;;;;;3.33;1.00;;;9.50;79.70;;;;;;5014040;28;20193;-86
2024/03/29 03:27:33;;;;;;;4.70;1.57;;;9.50;80.80;;;;;;5013241;28;20218;-83
2024/03/29 03:29:58;;;;;;;2.83;1.20;;;9.50;81.80;;;;;;5014252;28;20174;-84
2024/03/29 03:32:24;;;;;;;3.80;1.30;;;9.50;85.50;;;;;;5015509;28;20174;-86
2024/03/29 03:34:50;;;;;;;3.83;0.97;;;9.40;90.30;;;;;;5013646;28;20349;-83
2024/03/29 03:37:15;;;;;;;4.80;1.20;;;9.40;92.30;;;;;;5013362;28;20623;-86
2024/03/29 03:39:41;;;;;;;3.90;1.23;;;9.30;94.50;;;;;;5013313;28;20737;-86
2024/03/29 03:42:07;;;;;;;2.87;1.13;;;9.40;96.80;;;;;;5013129;28;20261;-86
2024/03/29 03:44:32;;;;;;;3.20;1.20;;;9.30;97.00;;;;;;5013138;28;20274;-83
2024/03/29 03:46:58;;;;;;;3.50;1.10;;;9.30;97.70;;;;;;5013803;28;20693;-85
2024/03/29 03:49:23;;;;;;;3.47;1.13;;;9.20;99.90;;;;;;5014754;28;20645;-84
2024/03/29 03:51:49;;;;;;;4.80;1.20;;;9.30;99.90;;;;;;5013523;28;20662;-85
2024/03/29 03:54:15;;;;;;;3.10;1.33;;;9.30;99.90;;;;;;5013256;28;20615;-83
2024/03/29 03:56:40;;;;;;;3.77;1.20;;;9.30;99.90;;;;;;5013425;28;20205;-83
2024/03/29 03:59:06;;;;;;;2.10;0.97;;;9.30;99.90;;;;;;5013855;28;20224;-83
2024/03/29 04:01:32;;;;;;;2.50;0.90;;;9.30;99.90;;;;;;5012215;28;20170;-84
2024/03/29 04:03:57;;;;;;;4.00;0.83;;;9.30;99.90;;;;;;5014022;28;20623;-85
2024/03/29 04:06:23;;;;;;;4.17;1.00;;;9.30;99.90;;;;;;5012267;28;20207;-85
2024/03/29 04:08:49;;;;;;;3.83;0.97;;;9.30;99.90;;;;;;5012695;28;20697;-87
2024/03/29 04:11:14;;;;;;;1.87;0.77;;;9.30;99.90;;;;;;5012741;28;20178;-85
2024/03/29 04:13:42;;;;;;;2.63;0.97;;;9.30;99.90;;;;;;5013796;28;20651;-86
2024/03/29 04:16:08;;;;;;;2.23;0.70;;;9.30;98.10;;;;;;5013021;28;20265;-82
2024/03/29 04:18:34;;;;;;;3.57;1.27;;;9.40;98.60;;;;;;5012219;28;20209;-82
2024/03/29 04:21:03;;;;;;;2.80;0.80;;;9.50;98.10;;;;;;5013531;28;20182;-84
2024/03/29 04:23:30;;;;;;;2.67;0.70;;;9.70;95.90;;;;;;5014641;28;20170;-83
2024/03/29 04:25:57;;;;;;;2.23;1.13;;;9.80;92.40;;;;;;5012304;28;20182;-85
2024/03/29 04:28:22;;;;;;;1.47;0.80;;;9.70;82.30;;;;;;5011880;28;20306;-85
2024/03/29 04:30:56;;;;;;;1.50;0.70;;;9.60;78.00;;;;;;5012683;28;20241;-85
2024/03/29 04:33:22;;;;;;;1.17;0.60;;;9.50;77.90;;;;;;5012459;28;20193;-85
2024/03/29 04:36:00;;;;;;;3.03;0.80;;;9.50;78.20;;;;;;5045386;28;20179;-84
2024/03/29 04:38:27;;;;;;;2.37;0.70;;;9.50;76.70;;;;;;5012289;28;20205;-84
2024/03/29 04:40:54;;;;;;;1.70;0.80;;;9.50;77.70;;;;;;5012337;28;20212;-83
2024/03/29 04:43:22;;;;;;;2.50;0.83;;;9.40;79.10;;;;;;5011854;28;20214;-84
2024/03/29 04:45:48;;;;;;;1.67;1.03;;;9.30;82.40;;;;;;5013235;28;20244;-84
2024/03/29 04:48:14;;;;;;;2.50;0.80;;;9.50;82.30;;;;;;5010710;28;20626;-85
2024/03/29 04:50:40;;;;;;;0.63;0.60;;;9.50;74.20;;;;;;5012352;28;20242;-84
2024/03/29 04:53:10;;;;;;;0.93;0.70;;;9.40;70.50;;;;;;5010585;28;20217;-86
2024/03/29 04:55:36;;;;;;;1.50;0.70;;;9.50;72.20;;;;;;5011211;28;20224;-85
2024/03/29 04:58:02;;;;;;;1.40;0.77;;;9.30;71.40;;;;;;5012573;28;20644;-85
2024/03/29 05:00:29;;;;;;;2.50;0.80;;;9.30;74.30;;;;;;5012508;28;20174;-85
2024/03/29 05:02:54;;;;;;;1.80;0.70;;;9.20;73.30;;;;;;5045796;28;20186;-84
2024/03/29 05:05:20;;;;;;;1.00;0.60;;;9.20;75.60;;;;;;5013584;28;20225;-82
2024/03/29 05:07:46;;;;;;;1.60;0.70;;;9.30;75.90;;;;;;5020363;28;20824;-84
2024/03/29 05:10:12;;;;;;;0.67;0.50;;;9.30;72.30;;;;;;5016260;28;20182;-84
2024/03/29 05:12:38;;;;;;;1.17;0.70;;;9.20;71.30;;;;;;5015577;28;20202;-84
2024/03/29 05:15:05;;;;;;;1.83;0.90;;;9.30;77.90;;;;;;5015752;28;20269;-83
2024/03/29 05:17:30;;;;;;;2.00;0.87;;;9.30;77.40;;;;;;5016756;28;20682;-83
2024/03/29 05:19:56;;;;;;;3.47;0.97;;;9.30;73.90;;;;;;5016147;28;20182;-84
2024/03/29 05:22:22;;;;;;;1.37;0.50;;;9.30;75.00;;;;;;5051515;28;20605;-85
2024/03/29 05:24:49;;;;;;;4.53;1.00;;;9.40;74.10;;;;;;5016001;28;20178;-83
2024/03/29 05:27:15;;;;;;;2.37;1.03;;;9.30;74.10;;;;;;5017530;28;20209;-85
2024/03/29 05:29:41;;;;;;;2.20;0.80;;;9.30;80.00;;;;;;5015428;28;20178;-82
2024/03/29 05:32:10;;;;;;;2.07;1.03;;;9.30;80.00;;;;;;5015366;28;20623;-83
2024/03/29 05:34:36;;;;;;;3.13;0.83;;;9.30;82.50;;;;;;5048166;28;20205;-84
2024/03/29 05:37:02;;;;;;;1.40;0.60;;;9.30;89.30;;;;;;5015438;28;20182;-86
2024/03/29 05:39:27;;;;;;;1.67;0.80;;;9.30;89.50;;;;;;5014698;28;20189;-83
2024/03/29 05:41:53;;;;;;;2.70;0.90;;;9.20;90.60;;;;;;5049091;28;20673;-84
2024/03/29 05:44:19;;;;;;;1.27;0.77;;;9.20;90.40;;;;;;5016287;28;20543;-84
2024/03/29 05:46:45;;;;;;;1.33;0.80;;;9.30;90.70;;;;;;5015510;28;20210;-85
2024/03/29 05:49:10;;;;;;;1.87;0.80;;;9.20;90.70;;;;;;5032252;28;20569;-82
2024/03/29 05:51:36;;;;;;;3.07;1.27;;;9.20;92.60;;;;;;5031072;28;20178;-83
2024/03/29 05:54:05;;;;;;;3.17;1.83;;;9.20;93.10;;;;;;5037755;28;20163;-84
2024/03/29 05:56:34;;;;;;;2.20;1.17;;;9.20;92.30;;;;;;5024646;28;20245;-85
2024/03/29 05:59:03;;;;;;;1.87;0.97;;;9.20;94.90;;;;;;5029305;28;20209;-82
2024/03/29 06:01:30;;;;;;;1.50;0.80;;;9.20;95.70;;;;;;5052809;28;20568;-84
2024/03/29 06:04:03;;;;;;;3.40;0.83;;;9.30;96.20;;;;;;5031237;28;20196;-86
2024/03/29 06:06:28;;;;;;;3.03;0.90;;;9.40;95.90;;;;;;5015726;28;20612;-85
2024/03/29 06:08:54;;;;;;;1.37;0.97;;;9.50;94.00;;;;;;5014542;28;20182;-84
2024/03/29 06:11:20;;;;;;;1.83;0.90;;;9.50;93.90;;;;;;5014610;28;20202;-83
2024/03/29 06:19:04;;;;;;;4.43;1.10;;;9.60;93.10;;;;;;5014871;28;20177;-86
2024/03/29 06:21:32;;;;;;;3.47;1.63;;;9.60;92.60;;;;;;5014668;28;20175;-86
2024/03/29 06:23:58;;;;;;;2.67;1.17;;;9.70;91.60;;;;;;5015263;28;20642;-83
2024/03/29 06:26:24;;;;;;;2.83;1.03;;;9.80;87.00;;;;;;5015187;28;20185;-85
2024/03/29 06:28:50;;;;;;;2.80;1.13;;;9.90;82.20;;;;;;5014740;28;20182;-83
2024/03/29 06:31:15;;;;;;;3.43;1.17;;;10.00;78.20;;;;;;5014424;28;20204;-84
2024/03/29 06:33:41;;;;;;;3.40;1.57;;;10.00;71.80;;;;;;5014331;28;20189;-84
2024/03/29 06:36:07;;;;;;;3.20;1.37;;;10.00;72.90;;;;;;5013786;28;20174;-84
2024/03/29 06:38:32;;;;;;;2.50;1.00;;;10.10;67.60;;;;;;5014811;28;20573;-86
2024/03/29 06:40:58;;;;;;;4.77;1.10;;;10.20;67.20;;;;;;5013745;28;20185;-83
2024/03/29 06:43:24;;;;;;;2.73;1.20;;;10.10;61.20;;;;;;5013526;28;20205;-85
2024/03/29 06:45:49;;;;;;;3.63;1.30;;;10.20;63.60;;;;;;5014439;28;20269;-84
2024/03/29 06:48:15;;;;;;;2.73;1.10;;;10.30;58.40;;;;;;5013355;28;20217;-85
2024/03/29 06:50:41;;;;;;;2.87;1.20;;;10.30;52.70;;;;;;5012558;28;20265;-84
2024/03/29 06:53:08;;;;;;;5.27;1.60;;;10.20;53.50;;;;;;5013978;28;20615;-86
2024/03/29 06:55:36;;;;;;;2.87;1.40;;;10.30;56.70;;;;;;5012720;28;20623;-82
2024/03/29 06:58:02;;;;;;;4.53;1.60;;;10.20;57.60;;;;;;5013162;28;20171;-83
2024/03/29 07:00:28;;;;;;;3.77;1.60;;;10.40;56.80;;;;;;5013085;28;20567;-83
2024/03/29 07:02:54;;;;;;;3.40;1.73;;;10.60;53.40;;;;;;5046533;28;20193;-92
2024/03/29 07:05:19;;;;;;;6.13;2.60;;;10.60;50.00;;;;;;5012875;28;20186;-84
2024/03/29 07:07:47;;;;;;;6.97;2.47;;;10.70;46.90;;;;;;5046619;28;20218;-82
2024/03/29 07:10:13;;;;;;;5.60;1.80;;;10.80;43.90;;;;;;5013791;28;20187;-82
2024/03/29 07:12:38;;;;;;;3.00;1.67;;;10.80;38.90;;;;;;5045752;28;20819;-83
2024/03/29 07:15:05;;;;;;;4.23;1.83;;;10.80;32.60;;;;;;5012729;28;20297;-85
2024/03/29 07:17:30;;;;;;;3.67;1.70;;;10.80;33.20;;;;;;5012343;28;20222;-84
2024/03/29 07:19:56;;;;;;;4.67;1.73;;;10.80;31.70;;;;;;5012507;28;20182;-83
2024/03/29 07:22:22;;;;;;;4.87;1.60;;;10.80;29.70;;;;;;5012234;28;20175;-85
2024/03/29 07:24:48;;;;;;;6.37;1.67;;;10.80;30.20;;;;;;5013257;28;20193;-82
2024/03/29 07:27:16;;;;;;;4.10;1.77;;;10.70;35.60;;;;;;5011878;28;20686;-84
2024/03/29 07:29:44;;;;;;;3.13;1.80;;;10.60;38.80;;;;;;5013077;28;20166;-84
2024/03/29 07:32:09;;;;;;;5.37;1.50;;;10.60;45.20;;;;;;5015811;28;20672;-86
2024/03/29 07:34:39;;;;;;;4.07;1.70;;;10.70;46.70;;;;;;5011855;28;20189;-83
2024/03/29 07:37:04;;;;;;;5.33;2.03;;;10.70;46.10;;;;;;5011973;28;20192;-84
2024/03/29 07:39:30;;;;;;;4.40;2.00;;;10.60;50.50;;;;;;5013092;28;20269;-85
2024/03/29 07:41:56;;;;;;;6.17;2.00;;;10.60;56.90;;;;;;5012657;28;20267;-83
2024/03/29 07:44:22;;;;;;;4.50;2.17;;;10.60;59.60;;;;;;5013061;28;20187;-84
2024/03/29 07:46:48;;;;;;;5.70;2.47;;;10.60;62.30;;;;;;5012474;28;20202;-85
2024/03/29 07:49:14;;;;;;;3.70;1.70;;;10.60;65.20;;;;;;5045646;28;20525;-85
2024/03/29 07:51:41;;;;;;;4.17;1.90;;;10.80;62.90;;;;;;5013447;28;20622;-82
2024/03/29 07:54:07;;;;;;;4.67;1.93;;;10.80;61.00;;;;;;5015024;28;20335;-84
2024/03/29 07:56:33;;;;;;;5.67;2.53;;;10.90;58.80;;;;;;5013408;28;20178;-84
2024/03/29 07:58:59;;;;;;;4.60;1.97;;;10.90;57.50;;;;;;5014486;28;20662;-84
2024/03/29 08:01:24;;;;;;;5.43;2.20;;;10.90;55.00;;;;;;5013075;28;20654;-84
2024/03/29 08:03:53;;;;;;;5.33;2.30;;;10.90;57.60;;;;;;5012607;28;20767;-84
2024/03/29 08:06:19;;;;;;;5.20;2.50;;;10.80;61.00;;;;;;5012653;28;20487;-84
2024/03/29 08:08:45;;;;;;;4.23;2.23;;;10.80;68.00;;;;;;5012058;28;20210;-83
2024/03/29 08:11:11;;;;;;;6.20;2.60;;;10.80;67.80;;;;;;5012402;28;20170;-83
2024/03/29 08:13:39;;;;;;;6.30;2.20;;;10.80;64.70;;;;;;5011723;28;20186;-84
2024/03/29 08:16:05;;;;;;;5.03;2.37;;;10.80;64.00;;;;;;5012217;28;20270;-85
2024/03/29 08:18:32;;;;;;;3.03;1.90;;;10.80;63.40;;;;;;5012309;28;20213;-84
2024/03/29 08:20:59;;;;;;;5.27;2.20;;;10.80;63.00;;;;;;5012400;28;20182;-85
2024/03/29 08:23:25;;;;;;;4.30;2.00;;;10.80;61.10;;;;;;5012041;28;20218;-85
2024/03/29 08:25:51;;;;;;;5.93;2.60;;;10.90;62.90;;;;;;5012490;28;20584;-85
2024/03/29 08:28:21;;;;;;;4.70;2.50;;;11.00;61.50;;;;;;5012307;28;20635;-84
2024/03/29 08:31:00;;;;;;;8.30;3.53;;;11.00;55.30;;;;;;5012677;28;20237;-84
2024/03/29 08:33:26;;;;;;;4.10;2.30;;;11.20;49.50;;;;;;5012850;28;20265;-84
2024/03/29 08:35:53;;;;;;;6.77;2.57;;;11.20;47.90;;;;;;5045854;28;20205;-83
2024/03/29 08:38:18;;;;;;;6.03;3.07;;;11.30;46.00;;;;;;5012131;28;20171;-83
2024/03/29 08:40:47;;;;;;;7.97;2.47;;;11.40;43.00;;;;;;5014810;28;20234;-84
2024/03/29 08:43:14;;;;;;;4.27;2.63;;;11.50;39.30;;;;;;5016230;28;20178;-84
2024/03/29 08:45:41;;;;;;;7.90;2.93;;;11.50;34.20;;;;;;5016843;28;20222;-85
2024/03/29 08:48:08;;;;;;;4.83;2.20;;;11.40;35.30;;;;;;5017188;28;20222;-83
2024/03/29 08:50:35;;;;;;;5.20;2.23;;;11.50;32.60;;;;;;5016660;28;20186;-84
2024/03/29 08:53:03;;;;;;;4.43;2.30;;;11.70;27.20;;;;;;5016488;28;20267;-85
2024/03/29 08:55:31;;;;;;;5.50;2.40;;;11.60;24.70;;;;;;5015601;28;20228;-85
2024/03/29 08:57:58;;;;;;;4.40;2.70;;;11.60;27.10;;;;;;5015745;28;20179;-86
2024/03/29 09:00:25;;;;;;;5.80;2.37;;;11.60;26.10;;;;;;5016218;28;20654;-86
2024/03/29 09:02:51;;;;;;;4.53;2.43;;;11.50;25.00;;;;;;5017574;28;20276;-84
2024/03/29 09:05:16;;;;;;;7.00;2.57;;;11.60;26.40;;;;;;5015315;28;20170;-85
2024/03/29 09:07:42;;;;;;;5.60;2.37;;;11.80;24.10;;;;;;5047980;28;20221;-83
2024/03/29 09:10:08;;;;;;;4.43;2.10;;;11.90;18.90;;;;;;5016679;28;20175;-84
2024/03/29 09:12:34;;;;;;;5.93;2.73;;;12.00;8.00;;;;;;5021756;28;20237;-84
2024/03/29 09:15:00;;;;;;;7.40;2.33;;;12.10;3.30;;;;;;5031482;28;20174;-83
2024/03/29 09:17:26;;;;;;;6.10;2.60;;;12.30;1.00;;;;;;5030079;28;20186;-85
2024/03/29 09:19:53;;;;;;;6.20;2.87;;;12.40;1.00;;;;;;5024517;28;20214;-85
2024/03/29 09:22:19;;;;;;;6.60;2.73;;;12.50;1.00;;;;;;5019016;28;20183;-85
2024/03/29 09:24:48;;;;;;;4.23;2.70;;;12.50;1.00;;;;;;5017890;28;20261;-84
2024/03/29 09:27:14;;;;;;;5.40;2.73;;;12.60;1.00;;;;;;5015892;28;20218;-84
2024/03/29 09:29:40;;;;;;;3.90;1.90;;;12.60;1.00;;;;;;5015659;28;20538;-85
2024/03/29 09:32:06;;;;;;;4.47;1.97;;;12.50;1.00;;;;;;5015603;28;20179;-85
2024/03/29 09:34:32;;;;;;;5.57;2.50;;;12.50;1.00;;;;;;5049035;28;20176;-84
2024/03/29 09:36:58;;;;;;;3.07;1.90;;;12.50;1.00;;;;;;5031936;28;20698;-85
2024/03/29 09:39:24;;;;;;;4.67;2.03;;;12.50;1.00;;;;;;5015511;28;20268;-84
2024/03/29 09:41:50;;;;;;;4.87;2.20;;;12.40;1.00;;;;;;5048763;28;20618;-85
2024/03/29 09:44:17;;;;;;;4.00;2.03;;;12.50;1.00;;;;;;5015104;28;20200;-85
2024/03/29 09:46:44;;;;;;;5.10;2.13;;;12.60;1.00;;;;;;5015250;28;20282;-84
2024/03/29 09:49:13;;;;;;;5.83;2.40;;;12.70;1.00;;;;;;5017489;28;20190;-83
2024/03/29 09:51:40;;;;;;;4.23;2.00;;;12.70;1.00;;;;;;5016619;28;20180;-84
2024/03/29 09:54:12;;;;;;;5.83;2.07;;;12.70;1.00;;;;;;5014730;28;20183;-86
2024/03/29 09:56:38;;;;;;;4.57;1.80;;;12.80;1.00;;;;;;5014976;28;20272;-85
2024/03/29 09:59:04;;;;;;;4.07;2.20;;;12.80;1.00;;;;;;5048071;28;20207;-84
2024/03/29 10:01:31;;;;;;;4.77;2.50;;;12.90;1.00;;;;;;5015262;28;20277;-84
2024/03/29 10:03:59;;;;;;;4.70;2.33;;;13.00;1.00;;;;;;5015538;28;20308;-84
2024/03/29 10:06:25;;;;;;;4.07;2.03;;;13.20;1.00;;;;;;5015269;28;20196;-84
2024/03/29 10:08:54;;;;;;;6.33;1.90;;;13.40;1.00;;;;;;5014767;28;20211;-85
2024/03/29 10:11:21;;;;;;;3.43;1.77;;;13.60;1.00;;;;;;5014812;28;20655;-85
2024/03/29 10:13:47;;;;;;;3.17;2.00;;;13.60;1.00;;;;;;5014934;28;20186;-85
2024/03/29 10:16:14;;;;;;;2.33;1.63;;;13.60;1.00;;;;;;5015581;28;20181;-85
2024/03/29 10:18:44;;;;;;;2.37;1.57;;;13.50;1.00;;;;;;5014109;28;20670;-83
2024/03/29 10:21:11;;;;;;;2.93;1.53;;;13.40;1.00;;;;;;5014029;28;20176;-84
2024/03/29 10:23:37;;;;;;;3.73;1.63;;;13.40;1.00;;;;;;5014160;28;20649;-83
2024/03/29 10:26:03;;;;;;;3.13;1.90;;;13.50;1.00;;;;;;5014063;28;20199;-84
2024/03/29 10:28:36;;;;;;;3.03;1.77;;;13.50;1.00;;;;;;5014472;28;20264;-84
2024/03/29 10:31:03;;;;;;;5.17;1.60;;;13.60;1.00;;;;;;5013829;28;20167;-84
2024/03/29 10:33:33;;;;;;;5.60;1.87;;;13.60;1.00;;;;;;5015452;28;20212;-84
2024/03/29 10:36:08;;;;;;;3.47;1.70;;;13.70;1.00;;;;;;5014499;28;20227;-84
2024/03/29 10:38:34;;;;;;;4.37;1.63;;;13.90;1.00;;;;;;5013741;28;20184;-85
2024/03/29 10:41:03;;;;;;;3.63;1.70;;;13.90;1.00;;;;;;5013181;28;20677;-84
2024/03/29 10:43:29;;;;;;;5.03;1.30;;;13.80;1.00;;;;;;5013010;28;20230;-82
2024/03/29 10:45:59;;;;;;;2.13;1.30;;;13.80;1.00;;;;;;5013100;28;20176;-82
2024/03/29 10:48:28;;;;;;;4.50;1.33;;;13.70;1.00;;;;;;5014565;28;20202;-83
2024/03/29 10:50:55;;;;;;;1.87;1.00;;;13.60;1.00;;;;;;5014121;28;20179;-84
2024/03/29 10:53:27;;;;;;;0.83;0.70;;;13.60;1.00;;;;;;5014287;28;20303;-83
2024/03/29 10:56:00;;;;;;;1.60;1.00;;;13.50;1.00;;;;;;5013605;28;20666;-84
2024/03/29 10:58:30;;;;;;;1.77;0.90;;;13.80;1.00;;;;;;5013819;28;20170;-84
2024/03/29 11:00:58;;;;;;;2.37;1.00;;;13.90;1.00;;;;;;5014530;28;20176;-84
2024/03/29 11:03:39;;;;;;;2.27;0.90;;;14.00;1.00;;;;;;5014360;28;20213;-85
2024/03/29 11:06:06;;;;;;;2.37;0.90;;;14.20;1.00;;;;;;5014139;28;20192;-84
2024/03/29 11:08:44;;;;;;;6.17;1.10;;;14.30;1.00;;;;;;5013891;28;20217;-85
2024/03/29 11:11:11;;;;;;;2.03;0.90;;;14.60;1.00;;;;;;5013255;28;20199;-83
2024/03/29 11:13:43;;;;;;;4.53;1.23;;;14.60;1.00;;;;;;5013980;28;20212;-84
2024/03/29 11:16:09;;;;;;;3.37;1.20;;;14.80;1.00;;;;;;5013819;28;20253;-84
2024/03/29 11:18:37;;;;;;;2.23;0.97;;;14.90;1.00;;;;;;5013523;28;20170;-84
2024/03/29 11:21:06;;;;;;;4.50;1.13;;;15.00;1.00;;;;;;5013107;28;20177;-85
2024/03/29 11:23:32;;;;;;;1.93;0.80;;;14.90;1.00;;;;;;5013979;28;20690;-84
2024/03/29 11:25:59;;;;;;;2.10;0.80;;;14.90;1.00;;;;;;5013186;28;20181;-85
2024/03/29 11:28:35;;;;;;;2.87;0.80;;;15.10;1.00;;;;;;5013262;28;20207;-84
2024/03/29 11:31:06;;;;;;;2.40;0.87;;;15.10;99.90;;;;;;5047121;28;20236;-85
2024/03/29 11:33:36;;;;;;;3.43;0.80;;;15.10;99.90;;;;;;5014961;28;20249;-84
2024/03/29 11:36:13;;;;;;;1.10;0.80;;;15.20;99.90;;;;;;5014392;28;20188;-84
2024/03/29 11:38:40;;;;;;;1.70;0.90;;;15.20;99.90;;;;;;5048531;28;20185;-84
2024/03/29 11:41:13;;;;;;;1.77;0.70;;;15.00;99.90;;;;;;5014611;28;20526;-84
2024/03/29 11:43:39;;;;;;;1.90;0.70;;;14.90;99.90;;;;;;5014824;28;20190;-85
2024/03/29 11:46:10;;;;;;;4.40;0.97;;;14.80;99.90;;;;;;5030532;28;20188;-85
2024/03/29 11:48:36;;;;;;;1.73;0.77;;;15.00;99.90;;;;;;5014003;28;20210;-85
2024/03/29 11:51:04;;;;;;;2.33;1.10;;;14.90;99.90;;;;;;5014306;28;20170;-86
2024/03/29 11:53:30;;;;;;;4.43;1.03;;;14.90;99.90;;;;;;5014127;28;20206;-85
2024/03/29 11:56:01;;;;;;;3.87;1.30;;;15.00;1.00;;;;;;5013229;28;20188;-83
2024/03/29 11:58:28;;;;;;;1.13;0.90;;;15.20;99.90;;;;;;5044881;28;20166;-85
2024/03/29 12:00:55;;;;;;;2.63;0.83;;;15.20;99.90;;;;;;5012067;28;20181;-86
2024/03/29 12:03:23;;;;;;;2.20;1.20;;;15.20;99.90;;;;;;5028480;28;20202;-84
2024/03/29 12:05:50;;;;;;;2.20;1.07;;;15.30;99.90;;;;;;5012559;28;20177;-84
2024/03/29 12:08:16;;;;;;;3.50;1.00;;;15.30;99.90;;;;;;5012484;28;20304;-86
2024/03/29 12:10:42;;;;;;;2.03;0.93;;;15.50;99.90;;;;;;5046340;28;20212;-85
2024/03/29 12:13:09;;;;;;;2.47;1.10;;;15.40;99.90;;;;;;5013115;28;20207;-84
2024/03/29 12:15:35;;;;;;;1.10;0.80;;;15.20;99.90;;;;;;5015177;28;20176;-86
2024/03/29 12:18:08;;;;;;;2.77;1.00;;;15.30;99.90;;;;;;5017533;28;20634;-84
2024/03/29 12:20:37;;;;;;;1.67;0.77;;;15.30;99.90;;;;;;5017903;28;20205;-85
2024/03/29 12:23:04;;;;;;;2.37;1.30;;;15.40;99.90;;;;;;5017359;28;20244;-85
2024/03/29 12:25:32;;;;;;;3.03;0.90;;;15.40;99.90;;;;;;5016929;28;20228;-84
2024/03/29 12:27:59;;;;;;;3.10;1.23;;;15.30;99.90;;;;;;5017403;28;20620;-85
2024/03/29 12:30:25;;;;;;;2.53;1.00;;;15.30;99.90;;;;;;5017123;28;20170;-84
2024/03/29 12:33:04;;;;;;;2.67;1.30;;;15.30;99.90;;;;;;5016751;28;20223;-85
2024/03/29 12:35:30;;;;;;;3.40;0.90;;;15.20;99.90;;;;;;5018843;28;20516;-83
2024/03/29 12:37:59;;;;;;;2.27;0.80;;;15.30;99.90;;;;;;5025538;28;20198;-85
2024/03/29 12:40:26;;;;;;;1.77;0.80;;;15.40;99.90;;;;;;5039290;28;20142;-84
2024/03/29 12:42:52;;;;;;;1.67;0.90;;;15.60;99.90;;;;;;5036620;28;20177;-84
2024/03/29 12:45:18;;;;;;;2.47;1.00;;;15.70;99.90;;;;;;5033205;28;20224;-84
2024/03/29 12:47:47;;;;;;;1.97;0.93;;;15.80;99.90;;;;;;5026378;28;20217;-84
2024/03/29 12:50:32;;;;;;;3.10;1.10;;;15.90;99.90;;;;;;5023164;28;20194;-84
2024/03/29 12:53:07;;;;;;;2.77;0.70;;;16.10;99.90;;;;;;5018702;28;20651;-86
2024/03/29 12:55:35;;;;;;;1.57;0.77;;;16.10;99.90;;;;;;5015931;28;20177;-85
2024/03/29 12:58:11;;;;;;;2.70;1.10;;;15.90;99.90;;;;;;5017507;28;20155;-84
2024/03/29 13:00:40;;;;;;;1.90;0.83;;;15.80;99.90;;;;;;5015871;28;20189;-85
2024/03/29 13:03:06;;;;;;;2.37;0.80;;;15.60;99.90;;;;;;5015533;28;20197;-86